createdAt,value
2022-08-31T00:01:09.802Z,4.25
2022-08-31T00:04:21.378Z,5.00
2022-08-31T00:06:53.807Z,4.00
2022-08-31T00:09:26.127Z,4.00
2022-08-31T00:11:58.664Z,4.25
2022-08-31T00:14:33.995Z,5.25
2022-08-31T00:17:08.597Z,4.00
2022-08-31T00:19:38.727Z,5.00
2022-08-31T00:22:14.821Z,5.00
2022-08-31T00:24:45.687Z,2.50
2022-08-31T00:27:16.280Z,5.75
2022-08-31T00:29:50.869Z,4.75
2022-08-31T00:32:21.948Z,4.50
2022-08-31T00:34:53.799Z,4.75
2022-08-31T00:37:26.228Z,4.00
2022-08-31T00:39:56.735Z,6.00
2022-08-31T00:42:32.149Z,5.25
2022-08-31T00:45:03.575Z,6.00
2022-08-31T00:47:34.052Z,4.75
2022-08-31T00:50:08.008Z,6.25
2022-08-31T00:52:42.486Z,6.75
2022-08-31T00:55:21.599Z,5.25
2022-08-31T00:57:57.279Z,5.00
2022-08-31T01:00:32.566Z,6.50
2022-08-31T01:03:06.185Z,7.50
2022-08-31T01:05:38.996Z,5.75
2022-08-31T01:08:11.167Z,6.25
2022-08-31T01:10:46.976Z,6.25
2022-08-31T01:13:20.255Z,6.25
2022-08-31T01:15:59.535Z,5.00
2022-08-31T01:18:30.388Z,5.50
2022-08-31T01:21:11.467Z,6.25
2022-08-31T01:23:45.618Z,5.50
2022-08-31T01:26:20.573Z,5.50
2022-08-31T01:28:52.312Z,7.75
2022-08-31T01:31:28.646Z,5.75
2022-08-31T01:34:00.478Z,7.50
2022-08-31T01:36:33.615Z,5.25
2022-08-31T01:39:08.252Z,5.25
2022-08-31T01:41:45.185Z,6.50
2022-08-31T01:44:18.783Z,7.00
2022-08-31T01:46:53.619Z,7.00
2022-08-31T01:49:25.780Z,7.25
2022-08-31T01:51:57.486Z,6.50
2022-08-31T01:54:30.106Z,6.75
2022-08-31T01:57:02.602Z,6.00
2022-08-31T01:59:57.446Z,8.25
2022-08-31T02:02:50.012Z,6.75
2022-08-31T02:05:21.653Z,8.00
2022-08-31T02:07:53.283Z,7.00
2022-08-31T02:10:24.381Z,6.25
2022-08-31T02:12:56.448Z,7.00
2022-08-31T02:15:34.673Z,8.50
2022-08-31T02:18:04.835Z,8.50
2022-08-31T02:20:37.977Z,7.50
2022-08-31T02:23:07.639Z,6.50
2022-08-31T02:25:39.497Z,7.50
2022-08-31T02:28:14.714Z,5.25
2022-08-31T02:30:48.699Z,7.00
2022-08-31T02:33:19.743Z,10.50
2022-08-31T02:35:51.756Z,6.00
2022-08-31T02:38:24.169Z,6.50
2022-08-31T02:40:57.504Z,7.00
2022-08-31T02:43:29.106Z,7.25
2022-08-31T02:46:01.467Z,9.00
2022-08-31T02:48:39.806Z,7.25
2022-08-31T02:51:12.629Z,9.00
2022-08-31T02:53:46.482Z,11.00
2022-08-31T02:56:18.887Z,8.00
2022-08-31T02:58:55.414Z,9.50
2022-08-31T03:01:29.489Z,9.00
2022-08-31T03:04:01.711Z,9.25
2022-08-31T03:06:34.552Z,9.00
2022-08-31T03:09:10.808Z,6.75
2022-08-31T03:11:43.025Z,8.25
2022-08-31T03:14:15.868Z,10.25
2022-08-31T03:16:47.536Z,9.00
2022-08-31T03:19:23.378Z,8.50
2022-08-31T03:21:56.211Z,6.75
2022-08-31T03:24:29.668Z,6.75
2022-08-31T03:27:01.229Z,10.00
2022-08-31T03:29:35.001Z,9.75
2022-08-31T03:32:22.220Z,7.75
2022-08-31T03:35:01.194Z,9.00
2022-08-31T03:37:30.882Z,9.00
2022-08-31T03:40:04.262Z,8.50
2022-08-31T03:42:36.084Z,6.25
2022-08-31T03:45:09.271Z,7.25
2022-08-31T03:47:43.450Z,7.00
2022-08-31T03:50:18.453Z,6.00
2022-08-31T03:53:11.960Z,7.25
2022-08-31T03:55:45.814Z,6.75
2022-08-31T03:58:21.222Z,5.25
2022-08-31T04:00:55.817Z,6.00
2022-08-31T04:03:48.573Z,6.00
2022-08-31T04:06:54.847Z,6.00
2022-08-31T04:09:42.922Z,5.00
2022-08-31T04:12:49.362Z,6.25
2022-08-31T04:15:55.557Z,5.00
2022-08-31T04:18:49.791Z,4.75
2022-08-31T04:21:23.663Z,5.75
2022-08-31T04:23:58.347Z,6.75
2022-08-31T04:26:37.183Z,4.00
2022-08-31T04:29:13.326Z,5.00
2022-08-31T04:31:46.365Z,4.00
2022-08-31T04:34:17.039Z,7.00
2022-08-31T04:36:49.035Z,3.25
2022-08-31T04:39:22.440Z,4.75
2022-08-31T04:41:54.351Z,5.00
2022-08-31T04:44:27.786Z,6.25
2022-08-31T04:47:02.004Z,4.50
2022-08-31T04:49:36.212Z,4.50
2022-08-31T04:52:08.025Z,4.00
2022-08-31T04:54:43.132Z,5.75
2022-08-31T04:57:15.673Z,5.25
2022-08-31T04:59:46.705Z,5.00
2022-08-31T05:02:51.961Z,5.25
2022-08-31T05:05:24.747Z,5.00
2022-08-31T05:07:55.615Z,4.25
2022-08-31T05:10:27.371Z,6.50
2022-08-31T05:12:58.511Z,5.00
2022-08-31T05:15:29.488Z,5.00
2022-08-31T05:17:59.904Z,5.75
2022-08-31T05:20:29.957Z,5.00
2022-08-31T05:23:01.475Z,6.25
2022-08-31T05:25:32.466Z,6.00
2022-08-31T05:28:09.654Z,4.25
2022-08-31T05:30:41.591Z,4.25
2022-08-31T05:33:17.912Z,5.00
2022-08-31T05:35:49.691Z,5.00
2022-08-31T05:38:19.755Z,5.00
2022-08-31T05:40:59.611Z,6.75
2022-08-31T05:43:33.019Z,4.75
2022-08-31T05:46:11.504Z,5.00
2022-08-31T05:48:42.315Z,5.25
2022-08-31T05:51:24.022Z,3.75
2022-08-31T05:53:55.023Z,5.00
2022-08-31T05:56:27.751Z,6.00
2022-08-31T05:59:04.205Z,5.00
2022-08-31T06:01:41.440Z,4.25
2022-08-31T06:04:25.270Z,5.25
2022-08-31T06:06:57.722Z,5.00
2022-08-31T06:09:32.562Z,5.25
2022-08-31T06:12:07.122Z,6.75
2022-08-31T06:14:45.628Z,3.00
2022-08-31T06:17:18.828Z,4.50
2022-08-31T06:19:53.749Z,4.00
2022-08-31T06:22:24.580Z,5.75
2022-08-31T06:24:57.495Z,5.00
2022-08-31T06:27:29.143Z,5.50
2022-08-31T06:30:04.936Z,5.00
2022-08-31T06:32:38.865Z,5.00
2022-08-31T06:35:12.581Z,4.00
2022-08-31T06:38:00.910Z,4.00
2022-08-31T06:41:30.390Z,4.00
2022-08-31T06:44:38.302Z,5.00
2022-08-31T06:47:24.235Z,6.00
2022-08-31T06:49:58.781Z,5.75
2022-08-31T06:52:29.067Z,4.25
2022-08-31T06:55:18.889Z,5.00
2022-08-31T06:58:07.171Z,3.25
2022-08-31T07:00:55.863Z,4.50
2022-08-31T07:03:51.297Z,6.00
2022-08-31T07:06:31.445Z,4.50
2022-08-31T07:09:09.489Z,4.00
2022-08-31T07:11:50.927Z,5.00
2022-08-31T07:14:23.251Z,3.00
2022-08-31T07:16:58.427Z,6.00
2022-08-31T07:19:32.360Z,5.00
2022-08-31T07:22:09.061Z,6.25
2022-08-31T07:24:42.539Z,5.00
2022-08-31T07:27:20.010Z,5.25
2022-08-31T07:29:55.911Z,5.75
2022-08-31T07:32:30.891Z,6.00
2022-08-31T07:35:03.620Z,5.25
2022-08-31T07:37:52.824Z,4.00
2022-08-31T07:40:48.705Z,2.50
2022-08-31T07:43:25.074Z,5.75
2022-08-31T07:45:56.304Z,6.50
2022-08-31T07:48:31.420Z,2.50
2022-08-31T07:51:24.058Z,5.50
2022-08-31T07:54:26.306Z,6.00
2022-08-31T07:57:31.776Z,5.00
2022-08-31T08:00:11.607Z,6.00
2022-08-31T08:02:52.903Z,6.25
2022-08-31T08:05:35.390Z,6.50
2022-08-31T08:08:25.988Z,5.50
2022-08-31T08:11:22.935Z,7.50
2022-08-31T08:14:08.879Z,6.25
2022-08-31T08:16:58.993Z,6.50
2022-08-31T08:19:45.229Z,7.75
2022-08-31T08:22:35.725Z,7.00
2022-08-31T08:25:31.549Z,6.75
2022-08-31T08:28:38.812Z,6.50
2022-08-31T08:31:18.062Z,6.25
2022-08-31T08:33:50.426Z,6.50
2022-08-31T08:36:23.174Z,7.75
2022-08-31T08:38:58.730Z,6.25
2022-08-31T08:41:33.646Z,9.25
2022-08-31T08:44:06.447Z,6.75
2022-08-31T08:46:56.259Z,8.00
2022-08-31T08:49:54.662Z,6.25
2022-08-31T08:52:32.104Z,6.25
2022-08-31T08:55:16.711Z,6.00
2022-08-31T08:57:57.155Z,6.00
2022-08-31T09:00:34.622Z,4.00
2022-08-31T09:03:16.746Z,6.25
2022-08-31T09:06:54.737Z,5.50
2022-08-31T09:09:57.638Z,6.25
2022-08-31T09:12:40.865Z,6.00
2022-08-31T09:15:39.832Z,7.50
2022-08-31T09:18:20.784Z,6.50
2022-08-31T09:21:09.446Z,5.75
2022-08-31T09:23:45.577Z,5.50
2022-08-31T09:26:19.496Z,6.00
2022-08-31T09:29:32.741Z,6.00
2022-08-31T09:32:09.581Z,7.25
2022-08-31T09:34:45.264Z,6.50
2022-08-31T09:37:39.526Z,6.75
2022-08-31T09:40:19.727Z,4.00
2022-08-31T09:43:26.576Z,7.50
2022-08-31T09:46:09.905Z,4.00
2022-08-31T09:49:00.401Z,6.00
2022-08-31T09:51:41.796Z,5.25
2022-08-31T09:54:37.678Z,5.75
2022-08-31T09:57:11.118Z,6.25
2022-08-31T09:59:49.331Z,6.00
2022-08-31T10:02:39.576Z,7.25
2022-08-31T10:05:33.473Z,5.25
2022-08-31T10:08:30.778Z,5.50
2022-08-31T10:11:17.415Z,6.50
2022-08-31T10:14:05.892Z,6.25
2022-08-31T10:16:40.333Z,4.50
2022-08-31T10:19:29.778Z,5.75
2022-08-31T10:22:08.528Z,7.25
2022-08-31T10:24:57.397Z,5.75
2022-08-31T10:27:39.223Z,6.75
2022-08-31T10:31:00.463Z,4.75
2022-08-31T10:34:10.199Z,6.25
2022-08-31T10:36:44.243Z,4.00
2022-08-31T10:39:38.799Z,6.00
2022-08-31T10:42:28.512Z,4.50
2022-08-31T10:45:05.673Z,7.00
2022-08-31T10:47:42.972Z,6.00
2022-08-31T10:50:19.142Z,4.00
2022-08-31T10:53:35.994Z,6.00
2022-08-31T10:56:19.224Z,5.50
2022-08-31T10:59:16.622Z,6.25
2022-08-31T11:02:03.643Z,5.75
2022-08-31T11:04:49.856Z,4.75
2022-08-31T11:08:03.062Z,6.00
2022-08-31T11:10:48.719Z,6.50
2022-08-31T11:13:52.231Z,6.50
2022-08-31T11:17:02.774Z,5.67
2022-08-31T11:19:51.779Z,6.25
2022-08-31T11:22:30.846Z,6.00
2022-08-31T11:25:04.217Z,4.75
2022-08-31T11:27:42.459Z,4.00
2022-08-31T11:30:28.450Z,6.50
2022-08-31T11:33:04.216Z,5.00
2022-08-31T11:36:12.154Z,7.00
2022-08-31T11:38:53.760Z,5.00
2022-08-31T11:41:50.667Z,7.50
2022-08-31T11:44:34.777Z,5.75
2022-08-31T11:47:32.351Z,5.50
2022-08-31T11:50:23.618Z,6.00
2022-08-31T11:52:54.888Z,9.00
2022-08-31T11:56:05.176Z,6.00
2022-08-31T11:58:41.553Z,5.75
2022-08-31T12:01:22.162Z,6.75
2022-08-31T12:03:57.849Z,6.75
2022-08-31T12:06:33.488Z,7.00
2022-08-31T12:09:41.735Z,6.75
2022-08-31T12:12:51.971Z,7.25
2022-08-31T12:15:42.738Z,7.25
2022-08-31T12:18:39.985Z,7.00
2022-08-31T12:21:53.915Z,6.00
2022-08-31T12:24:49.497Z,7.00
2022-08-31T12:27:52.987Z,8.25
2022-08-31T12:30:28.122Z,6.25
2022-08-31T12:33:13.830Z,5.25
2022-08-31T12:35:47.460Z,4.00
2022-08-31T12:38:22.855Z,6.50
2022-08-31T12:40:57.893Z,5.00
2022-08-31T12:43:42.876Z,7.00
2022-08-31T12:46:33.995Z,6.00
2022-08-31T12:49:25.490Z,7.00
2022-08-31T12:52:02.680Z,5.75
2022-08-31T12:54:36.191Z,6.75
2022-08-31T12:57:20.138Z,7.75
2022-08-31T13:00:13.180Z,6.25
2022-08-31T13:02:47.171Z,7.00
2022-08-31T13:05:31.254Z,6.50
2022-08-31T13:08:01.652Z,8.00
2022-08-31T13:10:38.464Z,7.25
2022-08-31T13:13:12.135Z,7.75
2022-08-31T13:15:47.749Z,8.25
2022-08-31T13:18:24.929Z,6.00
2022-08-31T13:21:07.371Z,7.25
2022-08-31T13:23:45.066Z,7.50
2022-08-31T13:26:24.217Z,7.75
2022-08-31T13:29:04.782Z,7.50
2022-08-31T13:31:51.976Z,7.25
2022-08-31T13:34:24.706Z,5.25
2022-08-31T13:37:01.067Z,6.50
2022-08-31T13:39:46.165Z,7.50
2022-08-31T13:42:44.701Z,10.00
2022-08-31T13:45:28.954Z,6.75
2022-08-31T13:48:06.684Z,10.25
2022-08-31T13:50:52.947Z,8.25
2022-08-31T13:53:44.642Z,10.00
2022-08-31T13:56:50.457Z,11.00
2022-08-31T13:59:46.039Z,7.75
2022-08-31T14:02:21.507Z,9.75
2022-08-31T14:04:59.201Z,11.00
2022-08-31T14:07:34.126Z,9.75
2022-08-31T14:10:20.406Z,11.00
2022-08-31T14:13:19.586Z,10.50
2022-08-31T14:15:52.786Z,15.00
2022-08-31T14:18:33.851Z,13.75
2022-08-31T14:21:23.448Z,10.50
2022-08-31T14:24:02.173Z,8.25
2022-08-31T14:26:39.731Z,7.00
2022-08-31T14:29:14.868Z,7.25
2022-08-31T14:31:54.066Z,9.25
2022-08-31T14:34:36.762Z,9.00
2022-08-31T14:37:20.690Z,9.00
2022-08-31T14:39:56.228Z,10.00
2022-08-31T14:42:31.940Z,10.00
2022-08-31T14:45:06.352Z,9.75
2022-08-31T14:47:42.794Z,7.25
2022-08-31T14:50:19.254Z,9.25
2022-08-31T14:52:55.656Z,8.00
2022-08-31T14:55:32.601Z,6.75
2022-08-31T14:58:09.094Z,6.00
2022-08-31T15:00:52.641Z,7.00
2022-08-31T15:03:26.075Z,5.25
2022-08-31T15:06:01.233Z,5.50
2022-08-31T15:08:37.931Z,5.25
2022-08-31T15:11:10.088Z,5.75
2022-08-31T15:13:42.332Z,33.75
2022-08-31T15:16:15.966Z,21.00
2022-08-31T15:18:49.140Z,12.00
2022-08-31T15:21:22.844Z,6.75
2022-08-31T15:23:56.747Z,6.00
2022-08-31T15:26:27.330Z,8.80
2022-08-31T15:29:00.436Z,6.80
2022-08-31T15:31:31.905Z,7.25
2022-08-31T15:34:03.043Z,8.25
2022-08-31T15:36:37.922Z,7.00
2022-08-31T15:39:12.573Z,7.50
2022-08-31T15:41:44.393Z,8.50
2022-08-31T15:44:14.510Z,7.40
2022-08-31T15:47:04.517Z,7.50
2022-08-31T15:49:38.107Z,8.00
2022-08-31T15:52:10.800Z,5.00
2022-08-31T15:54:45.607Z,8.25
2022-08-31T15:57:17.412Z,8.25
2022-08-31T15:59:50.020Z,5.75
2022-08-31T16:02:23.870Z,7.25
2022-08-31T16:04:55.163Z,5.75
2022-08-31T16:07:26.490Z,7.25
2022-08-31T16:09:59.257Z,6.50
2022-08-31T16:12:31.509Z,7.75
2022-08-31T16:15:02.053Z,7.00
2022-08-31T16:17:36.777Z,7.25
2022-08-31T16:20:12.935Z,6.80
2022-08-31T16:22:45.594Z,6.40
2022-08-31T16:25:16.511Z,8.40
2022-08-31T16:27:49.072Z,8.75
2022-08-31T16:30:22.246Z,9.50
2022-08-31T16:32:53.658Z,9.50
2022-08-31T16:35:25.176Z,9.00
2022-08-31T16:37:57.201Z,11.00
2022-08-31T16:40:30.400Z,9.75
2022-08-31T16:43:05.935Z,12.00
2022-08-31T16:45:41.499Z,9.75
2022-08-31T16:48:30.249Z,9.50
2022-08-31T16:51:03.588Z,7.75
2022-08-31T16:53:37.388Z,8.00
2022-08-31T16:56:08.490Z,9.50
2022-08-31T16:58:51.808Z,6.00
2022-08-31T17:01:36.012Z,10.00
2022-08-31T17:04:11.573Z,9.25
2022-08-31T17:06:44.483Z,9.25
2022-08-31T17:09:23.912Z,9.50
2022-08-31T17:12:03.448Z,9.75
2022-08-31T17:14:53.532Z,8.00
2022-08-31T17:17:32.494Z,8.00
2022-08-31T17:20:04.314Z,9.25
2022-08-31T17:22:36.921Z,8.00
2022-08-31T17:25:09.444Z,10.75
2022-08-31T17:27:40.052Z,10.00
2022-08-31T17:30:13.592Z,11.20
2022-08-31T17:32:49.482Z,12.80
2022-08-31T17:35:20.746Z,8.60
2022-08-31T17:37:52.151Z,16.40
2022-08-31T17:40:27.301Z,13.20
2022-08-31T17:43:00.473Z,12.20
2022-08-31T17:45:32.012Z,12.00
2022-08-31T17:48:03.456Z,12.60
2022-08-31T17:50:35.114Z,15.60
2022-08-31T17:53:07.358Z,12.80
2022-08-31T17:55:41.406Z,13.60
2022-08-31T17:58:11.584Z,17.50
2022-08-31T18:00:42.233Z,13.50
2022-08-31T18:03:13.122Z,15.00
2022-08-31T18:05:47.674Z,15.25
2022-08-31T18:08:19.374Z,14.75
2022-08-31T18:10:56.365Z,15.00
2022-08-31T18:13:26.716Z,15.75
2022-08-31T18:15:58.054Z,15.40
2022-08-31T18:18:28.015Z,14.75
2022-08-31T18:20:57.889Z,16.25
2022-08-31T18:23:29.672Z,19.00
2022-08-31T18:26:01.224Z,17.00
2022-08-31T18:28:33.960Z,18.00
2022-08-31T18:31:13.342Z,23.00
2022-08-31T18:33:52.432Z,16.00
2022-08-31T18:36:26.636Z,12.50
2022-08-31T18:39:00.181Z,17.40
2022-08-31T18:41:53.710Z,17.40
2022-08-31T18:44:43.717Z,17.60
2022-08-31T18:47:18.206Z,14.80
2022-08-31T18:49:49.667Z,15.60
2022-08-31T18:52:24.907Z,18.80
2022-08-31T18:54:58.338Z,18.40
2022-08-31T18:57:30.145Z,16.80
2022-08-31T19:00:04.653Z,17.00
2022-08-31T19:02:45.601Z,21.00
2022-08-31T19:05:18.000Z,19.80
2022-08-31T19:07:52.314Z,16.00
2022-08-31T19:10:28.188Z,18.00
2022-08-31T19:13:00.094Z,18.00
2022-08-31T19:15:36.197Z,14.40
2022-08-31T19:18:06.377Z,17.00
2022-08-31T19:20:37.079Z,17.60
2022-08-31T19:23:07.221Z,16.40
2022-08-31T19:25:47.072Z,17.40
2022-08-31T19:28:18.001Z,12.20
2022-08-31T19:30:50.295Z,14.00
2022-08-31T19:33:26.215Z,11.80
2022-08-31T19:36:04.773Z,13.60
2022-08-31T19:38:36.859Z,13.20
2022-08-31T19:41:09.138Z,13.20
2022-08-31T19:43:44.683Z,12.00
2022-08-31T19:46:25.547Z,14.80
2022-08-31T19:49:01.135Z,13.40
2022-08-31T19:51:33.284Z,16.40
2022-08-31T19:54:11.353Z,10.60
2022-08-31T19:56:45.064Z,14.60
2022-08-31T19:59:19.006Z,12.00
2022-08-31T20:01:54.617Z,12.60
2022-08-31T20:04:31.198Z,12.00
2022-08-31T20:07:01.624Z,8.60
2022-08-31T20:09:35.981Z,15.00
2022-08-31T20:12:09.676Z,12.40
2022-08-31T20:14:41.985Z,11.40
2022-08-31T20:17:16.205Z,12.40
2022-08-31T20:19:49.416Z,14.20
2022-08-31T20:22:21.789Z,13.20
2022-08-31T20:24:52.035Z,14.60
2022-08-31T20:27:22.665Z,15.00
2022-08-31T20:29:53.466Z,14.00
2022-08-31T20:32:27.026Z,13.40
2022-08-31T20:35:01.033Z,11.40
2022-08-31T20:37:32.179Z,11.40
2022-08-31T20:40:11.646Z,12.00
2022-08-31T20:42:43.618Z,12.40
2022-08-31T20:45:17.736Z,8.20
2022-08-31T20:48:06.019Z,13.20
2022-08-31T20:50:37.711Z,10.80
2022-08-31T20:53:08.018Z,11.40
2022-08-31T20:55:38.839Z,10.00
2022-08-31T20:58:09.234Z,14.80
2022-08-31T21:00:44.865Z,8.80
2022-08-31T21:03:17.548Z,8.20
2022-08-31T21:05:51.704Z,9.00
2022-08-31T21:08:25.651Z,8.60
2022-08-31T21:10:56.544Z,7.20
2022-08-31T21:13:31.864Z,9.00
2022-08-31T21:16:02.906Z,9.40
2022-08-31T21:18:36.070Z,8.00
2022-08-31T21:21:19.005Z,7.60
2022-08-31T21:23:50.165Z,8.40
2022-08-31T21:26:27.352Z,8.00
2022-08-31T21:29:00.658Z,9.40
2022-08-31T21:31:33.346Z,9.20
2022-08-31T21:34:03.877Z,6.80
2022-08-31T21:36:37.162Z,5.40
2022-08-31T21:39:12.855Z,5.40
2022-08-31T21:41:46.585Z,7.00
2022-08-31T21:44:22.606Z,8.20
2022-08-31T21:46:55.978Z,6.60
2022-08-31T21:49:27.305Z,6.00
2022-08-31T21:52:02.910Z,5.60
2022-08-31T21:54:34.188Z,16.80
2022-08-31T21:57:06.864Z,9.40
2022-08-31T21:59:39.911Z,6.80
2022-08-31T22:02:12.314Z,7.60
2022-08-31T22:04:48.621Z,5.00
2022-08-31T22:07:22.301Z,5.20
2022-08-31T22:09:54.561Z,6.20
2022-08-31T22:12:25.345Z,6.00
2022-08-31T22:14:57.004Z,4.60
2022-08-31T22:17:48.290Z,4.20
2022-08-31T22:20:21.593Z,5.80
2022-08-31T22:22:54.972Z,6.40
2022-08-31T22:25:30.300Z,2.40
2022-08-31T22:28:11.779Z,5.40
2022-08-31T22:30:45.051Z,6.00
2022-08-31T22:33:18.183Z,5.00
2022-08-31T22:35:51.655Z,6.00
2022-08-31T22:38:22.313Z,6.20
2022-08-31T22:40:53.853Z,5.40
2022-08-31T22:43:27.615Z,5.20
2022-08-31T22:45:59.089Z,6.20
2022-08-31T22:48:31.054Z,5.00
2022-08-31T22:51:13.124Z,5.80
2022-08-31T22:53:49.687Z,5.60
2022-08-31T22:56:26.774Z,4.20
2022-08-31T22:59:02.941Z,8.00
2022-08-31T23:01:37.341Z,6.40
2022-08-31T23:04:10.237Z,6.80
2022-08-31T23:06:44.515Z,6.00
2022-08-31T23:09:27.959Z,5.00
2022-08-31T23:12:00.818Z,7.00
2022-08-31T23:14:33.987Z,6.40
2022-08-31T23:17:10.386Z,7.40
2022-08-31T23:19:43.943Z,6.60
2022-08-31T23:22:16.397Z,7.00
2022-08-31T23:24:50.919Z,7.40
2022-08-31T23:27:23.013Z,6.00
2022-08-31T23:29:59.595Z,5.40
2022-08-31T23:32:31.307Z,4.40
2022-08-31T23:35:04.480Z,2.60
2022-08-31T23:37:35.004Z,4.00
2022-08-31T23:40:08.015Z,2.00
2022-08-31T23:42:44.098Z,2.80
2022-08-31T23:45:15.479Z,3.20
2022-08-31T23:47:47.435Z,3.80
2022-08-31T23:50:21.419Z,3.20
2022-08-31T23:52:53.561Z,2.00
2022-08-31T23:55:28.070Z,1.20
2022-08-31T23:58:04.194Z,1.80
